createdAt,value
2024-02-04T00:01:32.285Z,97505.59
2024-02-04T00:03:59.203Z,97512.97
2024-02-04T00:06:26.171Z,97504.91
2024-02-04T00:08:53.465Z,97526.22
2024-02-04T00:11:20.288Z,97528.78
2024-02-04T00:13:47.021Z,97536.53
2024-02-04T00:16:13.780Z,97515.59
2024-02-04T00:18:40.624Z,97518.47
2024-02-04T00:21:07.536Z,97524.38
2024-02-04T00:23:34.224Z,97499.47
2024-02-04T00:26:00.854Z,97513.91
2024-02-04T00:28:29.122Z,97516.56
2024-02-04T00:30:57.241Z,97504.97
2024-02-04T00:33:24.192Z,97522.00
2024-02-04T00:35:51.144Z,97526.78
2024-02-04T00:38:17.916Z,97540.25
2024-02-04T00:40:44.721Z,97539.44
2024-02-04T00:43:11.657Z,97553.97
2024-02-04T00:45:38.336Z,97562.03
2024-02-04T00:48:05.443Z,97568.91
2024-02-04T00:50:32.093Z,97568.69
2024-02-04T00:52:58.720Z,97567.66
2024-02-04T00:55:25.367Z,97569.69
2024-02-04T00:57:52.022Z,97572.41
2024-02-04T01:00:18.976Z,97574.97
2024-02-04T01:02:45.700Z,97581.00
2024-02-04T01:05:14.025Z,97597.28
2024-02-04T01:07:40.861Z,97596.22
2024-02-04T01:10:09.985Z,97605.00
2024-02-04T01:12:37.351Z,97609.03
2024-02-04T01:15:06.650Z,97613.84
2024-02-04T01:17:35.365Z,97613.75
2024-02-04T01:20:02.460Z,97616.34
2024-02-04T01:22:29.487Z,97620.31
2024-02-04T01:24:56.195Z,97617.91
2024-02-04T01:27:22.914Z,97612.59
2024-02-04T01:29:49.966Z,97617.72
2024-02-04T01:32:17.356Z,97626.56
2024-02-04T01:34:44.192Z,97621.03
2024-02-04T01:37:11.098Z,97624.22
2024-02-04T01:39:37.847Z,97609.47
2024-02-04T01:42:04.882Z,97612.19
2024-02-04T01:44:33.250Z,97610.91
2024-02-04T01:47:00.007Z,97606.13
2024-02-04T01:49:27.422Z,97599.56
2024-02-04T01:51:54.788Z,97600.75
2024-02-04T01:54:23.529Z,97591.22
2024-02-04T01:56:51.333Z,97593.78
2024-02-04T01:59:18.404Z,97589.09
2024-02-04T02:01:45.755Z,97582.28
2024-02-04T02:04:12.607Z,97576.03
2024-02-04T02:06:43.542Z,97563.16
2024-02-04T02:09:14.258Z,97569.59
2024-02-04T02:11:44.064Z,97559.84
2024-02-04T02:14:16.112Z,97551.91
2024-02-04T02:16:45.253Z,97555.91
2024-02-04T02:19:41.442Z,97549.72
2024-02-04T02:22:25.151Z,97549.25
2024-02-04T02:24:52.751Z,97541.84
2024-02-04T02:27:19.436Z,97529.28
2024-02-04T02:29:46.129Z,97516.47
2024-02-04T02:32:12.947Z,97515.63
2024-02-04T02:34:40.180Z,97523.28
2024-02-04T02:37:23.389Z,97516.19
2024-02-04T02:40:14.061Z,97515.81
2024-02-04T02:42:44.351Z,97528.03
2024-02-04T02:45:13.067Z,97524.66
2024-02-04T02:47:40.894Z,97522.72
2024-02-04T02:50:09.142Z,97521.94
2024-02-04T02:52:36.155Z,97531.19
2024-02-04T02:55:03.111Z,97522.19
2024-02-04T02:57:29.862Z,97523.38
2024-02-04T02:59:56.547Z,97529.88
2024-02-04T03:02:23.278Z,97529.53
2024-02-04T03:04:50.337Z,97532.56
2024-02-04T03:07:17.044Z,97524.66
2024-02-04T03:09:44.986Z,97527.69
2024-02-04T03:12:11.815Z,97534.06
2024-02-04T03:14:38.487Z,97542.25
2024-02-04T03:17:05.428Z,97542.25
2024-02-04T03:19:32.134Z,97559.78
2024-02-04T03:21:59.025Z,97556.94
2024-02-04T03:24:25.675Z,97562.59
2024-02-04T03:26:52.354Z,97572.00
2024-02-04T03:29:19.248Z,97583.44
2024-02-04T03:31:45.912Z,97602.88
2024-02-04T03:34:12.798Z,97594.25
2024-02-04T03:36:39.973Z,97600.25
2024-02-04T03:39:06.628Z,97609.13
2024-02-04T03:41:33.385Z,97608.72
2024-02-04T03:44:00.080Z,97610.84
2024-02-04T03:46:26.786Z,97616.25
2024-02-04T03:48:53.562Z,97626.09
2024-02-04T03:51:20.771Z,97627.69
2024-02-04T03:53:49.139Z,97633.16
2024-02-04T03:56:15.962Z,97631.06
2024-02-04T03:58:42.784Z,97645.69
2024-02-04T04:01:13.822Z,97646.53
2024-02-04T04:03:44.850Z,97646.34
2024-02-04T04:06:12.624Z,97658.34
2024-02-04T04:08:39.897Z,97664.53
2024-02-04T04:11:09.971Z,97673.44
2024-02-04T04:13:37.478Z,97667.84
2024-02-04T04:16:05.692Z,97688.66
2024-02-04T04:18:32.865Z,97675.78
2024-02-04T04:20:59.840Z,97685.22
2024-02-04T04:23:26.527Z,97695.16
2024-02-04T04:25:53.202Z,97693.53
2024-02-04T04:28:20.183Z,97700.09
2024-02-04T04:30:46.970Z,97699.88
2024-02-04T04:33:14.630Z,97711.13
2024-02-04T04:35:41.391Z,97707.50
2024-02-04T04:38:08.388Z,97722.22
2024-02-04T04:40:35.127Z,97720.34
2024-02-04T04:43:01.950Z,97713.50
2024-02-04T04:45:28.711Z,97722.81
2024-02-04T04:47:55.873Z,97718.69
2024-02-04T04:50:23.355Z,97725.16
2024-02-04T04:52:50.492Z,97733.09
2024-02-04T04:55:17.338Z,97730.66
2024-02-04T04:57:44.063Z,97735.22
2024-02-04T05:00:12.172Z,97728.63
2024-02-04T05:02:39.051Z,97716.97
2024-02-04T05:05:06.524Z,97732.31
2024-02-04T05:07:33.318Z,97713.97
2024-02-04T05:10:00.151Z,97707.50
2024-02-04T05:12:26.944Z,97708.38
2024-02-04T05:14:53.664Z,97703.03
2024-02-04T05:17:20.403Z,97694.22
2024-02-04T05:19:47.258Z,97673.59
2024-02-04T05:22:14.201Z,97664.44
2024-02-04T05:24:42.464Z,97656.88
2024-02-04T05:27:09.428Z,97646.84
2024-02-04T05:29:36.163Z,97655.72
2024-02-04T05:32:02.880Z,97643.00
2024-02-04T05:34:31.865Z,97648.13
2024-02-04T05:36:58.695Z,97639.63
2024-02-04T05:39:25.569Z,97635.84
2024-02-04T05:41:52.298Z,97634.63
2024-02-04T05:44:18.974Z,97630.16
2024-02-04T05:46:45.824Z,97631.19
2024-02-04T05:49:12.837Z,97627.06
2024-02-04T05:51:41.963Z,97627.47
2024-02-04T05:54:09.472Z,97641.97
2024-02-04T05:56:36.449Z,97632.34
2024-02-04T05:59:03.118Z,97627.94
2024-02-04T06:01:29.795Z,97646.66
2024-02-04T06:03:56.549Z,97640.94
2024-02-04T06:06:23.399Z,97628.53
2024-02-04T06:08:50.414Z,97648.06
2024-02-04T06:11:17.317Z,97639.41
2024-02-04T06:13:45.716Z,97637.31
2024-02-04T06:16:15.532Z,97626.53
2024-02-04T06:18:42.420Z,97616.72
2024-02-04T06:21:09.370Z,97611.53
2024-02-04T06:23:36.111Z,97612.22
2024-02-04T06:26:03.088Z,97604.63
2024-02-04T06:28:29.964Z,97600.59
2024-02-04T06:30:57.008Z,97592.66
2024-02-04T06:33:26.490Z,97599.06
2024-02-04T06:35:53.558Z,97601.09
2024-02-04T06:38:20.415Z,97611.56
2024-02-04T06:40:47.275Z,97605.09
2024-02-04T06:43:13.972Z,97603.81
2024-02-04T06:45:41.816Z,97609.50
2024-02-04T06:48:09.135Z,97607.59
2024-02-04T06:50:36.127Z,97613.94
2024-02-04T06:53:02.898Z,97612.63
2024-02-04T06:55:29.570Z,97609.75
2024-02-04T06:57:56.850Z,97624.50
2024-02-04T07:00:23.659Z,97616.91
2024-02-04T07:02:50.469Z,97622.84
2024-02-04T07:05:17.336Z,97624.34
2024-02-04T07:07:44.535Z,97634.84
2024-02-04T07:10:11.714Z,97636.63
2024-02-04T07:12:38.880Z,97645.19
2024-02-04T07:15:06.051Z,97648.78
2024-02-04T07:17:32.793Z,97657.41
2024-02-04T07:19:59.820Z,97665.78
2024-02-04T07:22:27.164Z,97671.78
2024-02-04T07:24:54.054Z,97673.59
2024-02-04T07:27:20.717Z,97682.31
2024-02-04T07:29:48.545Z,97677.91
2024-02-04T07:32:16.461Z,97683.22
2024-02-04T07:34:43.341Z,97677.38
2024-02-04T07:37:10.219Z,97681.47
2024-02-04T07:39:37.145Z,97682.16
2024-02-04T07:42:04.144Z,97688.91
2024-02-04T07:44:31.229Z,97686.50
2024-02-04T07:46:58.200Z,97699.44
2024-02-04T07:49:25.017Z,97694.97
2024-02-04T07:51:51.832Z,97698.72
2024-02-04T07:54:18.790Z,97707.13
2024-02-04T07:56:45.631Z,97704.78
2024-02-04T07:59:12.534Z,97710.09
2024-02-04T08:01:39.394Z,97714.16
2024-02-04T08:04:07.876Z,97704.22
2024-02-04T08:06:36.381Z,97725.41
2024-02-04T08:09:03.468Z,97723.88
2024-02-04T08:11:30.273Z,97728.22
2024-02-04T08:13:57.290Z,97729.75
2024-02-04T08:16:24.132Z,97725.44
2024-02-04T08:18:50.895Z,97727.03
2024-02-04T08:21:17.689Z,97712.97
2024-02-04T08:23:45.944Z,97721.34
2024-02-04T08:26:12.693Z,97715.31
2024-02-04T08:28:39.379Z,97721.75
2024-02-04T08:31:06.077Z,97712.44
2024-02-04T08:33:33.165Z,97712.19
2024-02-04T08:35:59.974Z,97720.13
2024-02-04T08:38:26.698Z,97725.00
2024-02-04T08:40:53.442Z,97714.72
2024-02-04T08:43:20.328Z,97712.97
2024-02-04T08:45:47.325Z,97715.44
2024-02-04T08:48:14.076Z,97706.34
2024-02-04T08:50:40.977Z,97706.38
2024-02-04T08:53:07.640Z,97699.72
2024-02-04T08:55:34.396Z,97695.22
2024-02-04T08:58:01.447Z,97690.38
2024-02-04T09:00:28.485Z,97695.84
2024-02-04T09:02:55.213Z,97690.06
2024-02-04T09:05:21.984Z,97695.78
2024-02-04T09:07:49.014Z,97690.28
2024-02-04T09:10:16.565Z,97692.34
2024-02-04T09:12:43.487Z,97684.66
2024-02-04T09:15:10.475Z,97673.19
2024-02-04T09:17:37.292Z,97661.50
2024-02-04T09:20:05.468Z,97648.50
2024-02-04T09:22:32.595Z,97649.78
2024-02-04T09:24:59.307Z,97652.28
2024-02-04T09:27:26.940Z,97652.03
2024-02-04T09:29:56.503Z,97650.81
2024-02-04T09:32:24.022Z,97643.47
2024-02-04T09:34:51.180Z,97638.69
2024-02-04T09:37:18.164Z,97643.75
2024-02-04T09:39:45.149Z,97645.38
2024-02-04T09:42:20.629Z,97633.28
2024-02-04T09:44:49.796Z,97634.06
2024-02-04T09:47:17.326Z,97640.75
2024-02-04T09:49:44.892Z,97641.16
2024-02-04T09:52:14.198Z,97640.41
2024-02-04T09:54:54.953Z,97645.38
2024-02-04T09:57:21.795Z,97649.69
2024-02-04T09:59:49.139Z,97643.25
2024-02-04T10:02:21.237Z,97642.41
2024-02-04T10:04:50.851Z,97631.44
2024-02-04T10:07:20.095Z,97634.47
2024-02-04T10:09:47.073Z,97627.91
2024-02-04T10:12:13.862Z,97628.03
2024-02-04T10:14:40.569Z,97630.56
2024-02-04T10:17:08.263Z,97623.69
2024-02-04T10:19:35.280Z,97621.16
2024-02-04T10:22:03.255Z,97617.22
2024-02-04T10:24:30.401Z,97614.22
2024-02-04T10:26:58.017Z,97611.91
2024-02-04T10:29:25.919Z,97612.34
2024-02-04T10:31:56.258Z,97600.56
2024-02-04T10:34:23.952Z,97605.66
2024-02-04T10:36:50.891Z,97603.22
2024-02-04T10:39:17.647Z,97603.97
2024-02-04T10:41:55.161Z,97606.44
2024-02-04T10:44:25.526Z,97609.47
2024-02-04T10:46:53.141Z,97601.44
2024-02-04T10:49:21.403Z,97607.69
2024-02-04T10:51:49.142Z,97606.03
2024-02-04T10:54:20.020Z,97599.66
2024-02-04T10:56:49.224Z,97595.38
2024-02-04T10:59:20.805Z,97605.66
2024-02-04T11:01:51.280Z,97602.13
2024-02-04T11:04:19.028Z,97607.09
2024-02-04T11:06:46.498Z,97598.88
2024-02-04T11:09:15.689Z,97603.03
2024-02-04T11:11:42.891Z,97596.25
2024-02-04T11:14:13.750Z,97597.88
2024-02-04T11:16:46.388Z,97594.72
2024-02-04T11:19:29.316Z,97599.28
2024-02-04T11:22:06.674Z,97600.00
2024-02-04T11:24:58.078Z,97591.56
2024-02-04T11:27:26.705Z,97600.34
2024-02-04T11:29:53.374Z,97589.19
2024-02-04T11:32:20.293Z,97594.50
2024-02-04T11:34:47.937Z,97592.50
2024-02-04T11:37:25.662Z,97575.50
2024-02-04T11:39:54.221Z,97568.00
2024-02-04T11:42:21.795Z,97552.66
2024-02-04T11:44:48.695Z,97540.34
2024-02-04T11:47:26.252Z,97513.94
2024-02-04T11:49:57.234Z,97503.75
2024-02-04T11:52:24.381Z,97500.53
2024-02-04T11:54:51.679Z,97492.19
2024-02-04T11:57:19.061Z,97475.81
2024-02-04T11:59:46.215Z,97479.72
2024-02-04T12:02:13.556Z,97460.66
2024-02-04T12:04:41.029Z,97451.84
2024-02-04T12:07:09.783Z,97447.00
2024-02-04T12:09:37.473Z,97437.50
2024-02-04T12:12:04.526Z,97447.78
2024-02-04T12:14:31.967Z,97435.09
2024-02-04T12:16:58.859Z,97433.75
2024-02-04T12:19:25.833Z,97424.75
2024-02-04T12:21:52.673Z,97417.44
2024-02-04T12:24:19.459Z,97406.78
2024-02-04T12:26:48.687Z,97405.47
2024-02-04T12:29:15.983Z,97411.66
2024-02-04T12:31:43.276Z,97402.25
2024-02-04T12:34:10.545Z,97406.38
2024-02-04T12:36:37.382Z,97404.38
2024-02-04T12:39:04.991Z,97406.16
2024-02-04T12:41:31.721Z,97410.97
2024-02-04T12:44:01.401Z,97408.41
2024-02-04T12:46:28.337Z,97407.94
2024-02-04T12:48:56.540Z,97395.50
2024-02-04T12:51:29.856Z,97407.50
2024-02-04T12:54:06.343Z,97397.75
2024-02-04T12:56:49.724Z,97391.56
2024-02-04T12:59:33.274Z,97394.03
2024-02-04T13:02:02.187Z,97389.66
2024-02-04T13:04:37.878Z,97386.63
2024-02-04T13:07:14.470Z,97389.44
2024-02-04T13:09:42.223Z,97384.78
2024-02-04T13:12:10.738Z,97384.25
2024-02-04T13:14:42.636Z,97390.91
2024-02-04T13:17:09.483Z,97390.00
2024-02-04T13:19:37.864Z,97396.59
2024-02-04T13:22:05.717Z,97396.66
2024-02-04T13:24:33.540Z,97377.34
2024-02-04T13:27:04.921Z,97388.94
2024-02-04T13:29:31.686Z,97377.91
2024-02-04T13:31:58.675Z,97375.25
2024-02-04T13:34:25.739Z,97374.84
2024-02-04T13:36:52.907Z,97385.09
2024-02-04T13:39:20.094Z,97372.88
2024-02-04T13:41:46.950Z,97373.19
2024-02-04T13:44:13.770Z,97354.75
2024-02-04T13:46:43.967Z,97359.84
2024-02-04T13:49:14.135Z,97351.16
2024-02-04T13:51:44.965Z,97347.97
2024-02-04T13:54:17.914Z,97350.53
2024-02-04T13:56:47.046Z,97347.03
2024-02-04T13:59:14.099Z,97349.56
2024-02-04T14:01:40.985Z,97342.22
2024-02-04T14:04:07.950Z,97347.41
2024-02-04T14:06:34.942Z,97346.78
2024-02-04T14:09:01.829Z,97341.69
2024-02-04T14:11:28.984Z,97351.50
2024-02-04T14:13:55.789Z,97341.25
2024-02-04T14:16:22.533Z,97355.31
2024-02-04T14:18:49.382Z,97340.78
2024-02-04T14:21:16.221Z,97345.75
2024-02-04T14:23:43.034Z,97338.16
2024-02-04T14:26:17.753Z,97343.94
2024-02-04T14:28:44.659Z,97350.66
2024-02-04T14:31:11.625Z,97347.94
2024-02-04T14:33:38.536Z,97342.50
2024-02-04T14:36:05.702Z,97352.59
2024-02-04T14:38:33.158Z,97359.22
2024-02-04T14:41:00.115Z,97358.56
2024-02-04T14:43:26.982Z,97363.53
2024-02-04T14:45:53.746Z,97356.59
2024-02-04T14:48:20.722Z,97362.31
2024-02-04T14:50:48.642Z,97370.69
2024-02-04T14:53:15.399Z,97379.63
2024-02-04T14:55:42.163Z,97384.16
2024-02-04T14:58:08.958Z,97385.03
2024-02-04T15:00:35.842Z,97384.63
2024-02-04T15:03:02.738Z,97392.00
2024-02-04T15:05:29.575Z,97403.25
2024-02-04T15:07:56.244Z,97406.75
2024-02-04T15:10:24.363Z,97400.50
2024-02-04T15:12:53.816Z,97403.94
2024-02-04T15:15:21.125Z,97402.13
2024-02-04T15:17:48.161Z,97396.41
2024-02-04T15:20:19.214Z,97396.28
2024-02-04T15:22:46.749Z,97394.53
2024-02-04T15:25:16.351Z,97395.44
2024-02-04T15:27:45.115Z,97402.88
2024-02-04T15:30:15.444Z,97397.97
2024-02-04T15:32:43.629Z,97408.59
2024-02-04T15:35:10.982Z,97402.63
2024-02-04T15:37:37.720Z,97400.44
2024-02-04T15:40:04.901Z,97409.28
2024-02-04T15:42:31.791Z,97403.91
2024-02-04T15:44:58.489Z,97420.63
2024-02-04T15:47:28.407Z,97414.22
2024-02-04T15:49:55.493Z,97416.94
2024-02-04T15:52:23.241Z,97423.06
2024-02-04T15:54:52.754Z,97423.59
2024-02-04T15:57:21.499Z,97427.22
2024-02-04T15:59:52.070Z,97423.59
2024-02-04T16:02:18.980Z,97433.78
2024-02-04T16:04:52.217Z,97436.03
2024-02-04T16:07:21.712Z,97431.88
2024-02-04T16:09:50.025Z,97446.84
2024-02-04T16:12:21.374Z,97434.56
2024-02-04T16:14:50.835Z,97442.84
2024-02-04T16:17:19.825Z,97423.78
2024-02-04T16:19:50.596Z,97426.75
2024-02-04T16:22:18.900Z,97435.84
2024-02-04T16:24:47.866Z,97435.81
2024-02-04T16:27:14.842Z,97435.38
2024-02-04T16:29:43.113Z,97432.50
2024-02-04T16:32:12.408Z,97439.41
2024-02-04T16:34:39.520Z,97438.50
2024-02-04T16:37:11.303Z,97445.09
2024-02-04T16:39:38.578Z,97441.09
2024-02-04T16:42:05.998Z,97440.22
2024-02-04T16:44:32.729Z,97437.03
2024-02-04T16:46:59.431Z,97439.56
2024-02-04T16:49:28.625Z,97448.72
2024-02-04T16:51:55.544Z,97450.91
2024-02-04T16:54:28.425Z,97455.84
2024-02-04T16:56:59.475Z,97456.09
2024-02-04T16:59:26.301Z,97451.69
2024-02-04T17:01:53.798Z,97453.31
2024-02-04T17:04:21.260Z,97449.59
2024-02-04T17:06:48.452Z,97458.78
2024-02-04T17:09:16.086Z,97451.78
2024-02-04T17:11:44.613Z,97453.19
2024-02-04T17:14:18.936Z,97453.81
2024-02-04T17:17:13.524Z,97448.84
2024-02-04T17:19:41.011Z,97453.00
2024-02-04T17:22:15.688Z,97454.44
2024-02-04T17:24:51.816Z,97453.44
2024-02-04T17:27:20.162Z,97452.09
2024-02-04T17:29:48.245Z,97452.88
2024-02-04T17:32:16.255Z,97454.75
2024-02-04T17:34:43.435Z,97455.75
2024-02-04T17:37:10.898Z,97450.94
2024-02-04T17:39:38.933Z,97455.53
2024-02-04T17:42:07.110Z,97460.88
2024-02-04T17:44:37.137Z,97451.97
2024-02-04T17:47:04.224Z,97459.34
2024-02-04T17:49:31.397Z,97462.44
2024-02-04T17:51:58.272Z,97453.91
2024-02-04T17:54:25.371Z,97451.84
2024-02-04T17:56:53.232Z,97453.63
2024-02-04T17:59:22.700Z,97440.59
2024-02-04T18:01:49.798Z,97441.03
2024-02-04T18:04:17.395Z,97441.16
2024-02-04T18:06:44.518Z,97443.78
2024-02-04T18:09:11.368Z,97439.38
2024-02-04T18:11:38.093Z,97446.38
2024-02-04T18:14:06.995Z,97448.97
2024-02-04T18:16:34.013Z,97442.81
2024-02-04T18:19:01.635Z,97438.06
2024-02-04T18:21:28.541Z,97435.19
2024-02-04T18:23:56.094Z,97436.28
2024-02-04T18:26:28.042Z,97433.34
2024-02-04T18:29:00.222Z,97430.81
2024-02-04T18:31:30.479Z,97436.59
2024-02-04T18:33:58.176Z,97438.13
2024-02-04T18:36:27.510Z,97457.63
2024-02-04T18:38:56.276Z,97448.00
2024-02-04T18:41:23.021Z,97439.53
2024-02-04T18:43:50.447Z,97451.94
2024-02-04T18:46:19.161Z,97455.50
2024-02-04T18:48:46.824Z,97453.03
2024-02-04T18:51:13.793Z,97449.41
2024-02-04T18:53:41.555Z,97449.41
2024-02-04T18:56:13.494Z,97443.00
2024-02-04T18:58:40.260Z,97454.25
2024-02-04T19:01:07.014Z,97465.66
2024-02-04T19:03:33.840Z,97457.50
2024-02-04T19:06:00.657Z,97459.47
2024-02-04T19:08:27.935Z,97455.53
2024-02-04T19:10:54.706Z,97464.03
2024-02-04T19:13:21.652Z,97465.88
2024-02-04T19:15:48.681Z,97460.91
2024-02-04T19:18:15.474Z,97469.66
2024-02-04T19:20:42.193Z,97467.69
2024-02-04T19:23:10.726Z,97464.75
2024-02-04T19:25:38.788Z,97470.81
2024-02-04T19:28:05.980Z,97468.72
2024-02-04T19:30:36.796Z,97461.28
2024-02-04T19:33:05.171Z,97472.06
2024-02-04T19:35:31.959Z,97458.59
2024-02-04T19:37:58.725Z,97464.31
2024-02-04T19:40:25.630Z,97459.06
2024-02-04T19:42:52.467Z,97466.34
2024-02-04T19:45:22.701Z,97462.88
2024-02-04T19:47:50.576Z,97465.00
2024-02-04T19:50:17.430Z,97462.84
2024-02-04T19:52:45.717Z,97473.81
2024-02-04T19:55:13.836Z,97465.66
2024-02-04T19:57:40.694Z,97471.78
2024-02-04T20:00:09.462Z,97464.16
2024-02-04T20:02:36.027Z,97475.03
2024-02-04T20:05:02.892Z,97468.34
2024-02-04T20:07:30.628Z,97468.50
2024-02-04T20:09:57.478Z,97466.25
2024-02-04T20:12:27.144Z,97470.25
2024-02-04T20:14:53.954Z,97467.97
2024-02-04T20:17:20.752Z,97459.53
2024-02-04T20:19:50.509Z,97458.47
2024-02-04T20:22:17.254Z,97452.22
2024-02-04T20:24:43.959Z,97448.44
2024-02-04T20:27:10.648Z,97457.06
2024-02-04T20:29:39.278Z,97455.19
2024-02-04T20:32:06.494Z,97460.84
2024-02-04T20:34:33.437Z,97464.97
2024-02-04T20:37:00.299Z,97448.81
2024-02-04T20:39:27.334Z,97458.94
2024-02-04T20:41:55.889Z,97462.22
2024-02-04T20:44:22.775Z,97455.69
2024-02-04T20:46:50.654Z,97449.81
2024-02-04T20:49:17.838Z,97458.47
2024-02-04T20:51:44.567Z,97447.53
2024-02-04T20:54:12.000Z,97451.91
2024-02-04T20:56:38.693Z,97448.09
2024-02-04T20:59:05.478Z,97440.69
2024-02-04T21:01:32.319Z,97440.31
2024-02-04T21:03:59.335Z,97434.75
2024-02-04T21:06:32.228Z,97421.56
2024-02-04T21:08:59.211Z,97435.16
2024-02-04T21:11:28.076Z,97423.06
2024-02-04T21:13:54.936Z,97429.44
2024-02-04T21:16:21.776Z,97423.88
2024-02-04T21:18:48.690Z,97431.13
2024-02-04T21:21:15.439Z,97434.75
2024-02-04T21:23:43.107Z,97433.38
2024-02-04T21:26:10.452Z,97431.75
2024-02-04T21:28:37.475Z,97432.97
2024-02-04T21:31:04.310Z,97427.63
2024-02-04T21:33:31.034Z,97427.22
2024-02-04T21:35:57.750Z,97430.03
2024-02-04T21:38:24.401Z,97419.31
2024-02-04T21:40:51.028Z,97431.66
2024-02-04T21:43:19.004Z,97429.25
2024-02-04T21:45:46.031Z,97428.75
2024-02-04T21:48:12.936Z,97430.34
2024-02-04T21:50:41.707Z,97434.13
2024-02-04T21:53:09.933Z,97426.34
2024-02-04T21:55:36.625Z,97431.59
2024-02-04T21:58:06.387Z,97423.38
2024-02-04T22:00:35.141Z,97430.34
2024-02-04T22:03:02.355Z,97425.56
2024-02-04T22:05:31.289Z,97419.44
2024-02-04T22:07:58.270Z,97424.22
2024-02-04T22:10:25.045Z,97419.06
2024-02-04T22:12:51.808Z,97417.75
2024-02-04T22:15:18.657Z,97416.22
2024-02-04T22:17:45.410Z,97410.00
2024-02-04T22:20:12.703Z,97417.44
2024-02-04T22:22:39.428Z,97408.50
2024-02-04T22:25:06.625Z,97405.50
2024-02-04T22:27:34.199Z,97414.75
2024-02-04T22:30:03.029Z,97403.59
2024-02-04T22:32:30.017Z,97401.38
2024-02-04T22:34:56.788Z,97404.16
2024-02-04T22:37:23.557Z,97403.50
2024-02-04T22:39:50.364Z,97403.69
2024-02-04T22:42:17.095Z,97403.50
2024-02-04T22:44:43.793Z,97399.22
2024-02-04T22:47:10.551Z,97403.59
2024-02-04T22:49:37.448Z,97392.84
2024-02-04T22:52:04.498Z,97401.41
2024-02-04T22:54:31.235Z,97398.84
2024-02-04T22:56:57.965Z,97386.22
2024-02-04T22:59:24.658Z,97389.66
2024-02-04T23:01:52.365Z,97392.34
2024-02-04T23:04:19.376Z,97389.81
2024-02-04T23:06:47.430Z,97388.19
2024-02-04T23:09:15.087Z,97394.44
2024-02-04T23:11:43.222Z,97397.84
2024-02-04T23:14:10.594Z,97402.19
2024-02-04T23:16:37.254Z,97412.28
2024-02-04T23:19:04.043Z,97413.47
2024-02-04T23:21:30.869Z,97424.13
2024-02-04T23:23:57.587Z,97408.44
2024-02-04T23:26:24.494Z,97397.69
2024-02-04T23:28:51.224Z,97396.91
2024-02-04T23:31:18.018Z,97404.50
2024-02-04T23:33:46.527Z,97398.81
2024-02-04T23:36:13.331Z,97399.63
2024-02-04T23:38:40.688Z,97403.44
2024-02-04T23:41:08.332Z,97407.84
2024-02-04T23:43:35.563Z,97406.94
2024-02-04T23:46:02.828Z,97401.31
2024-02-04T23:48:29.899Z,97404.56
2024-02-04T23:50:56.750Z,97396.78
2024-02-04T23:53:23.735Z,97396.78
2024-02-04T23:55:51.091Z,97398.75
2024-02-04T23:58:17.894Z,97400.41
